El Campo, TX

4:07 AM CDT on September 19, 2014 (GMT -0500)
Port Lavaca | Change Station
CLOSE
Current Station
Airport
Location: Port Lavaca,
Elevation: 30 ft
Nearby Weather Stations
Active Advisory: Areal Flood Watch

Elev 30 ft 28.65 °N, 96.68 °W | Updated 12 minutes ago

Overcast
Overcast
77 °F
Feels Like 77 °F
N
4
Wind Variable Wind from SSE

Today
High -- | Low -- °F
--% Chance of Precip.
Yesterday
High -- | Low -- °F
Precip. -- in
7:12 AM 7:25 PM
Waning Crescent, 20% visible
Pressure 29.83 in
Visibility 10.0 miles
Clouds Clear
Dew Point 75 °F
Humidity 95%
Rainfall 0.01 in
Snow Depth Not available.
UV 0 out of 12
Pollen 7.30 out of 12
Air Quality Not available.
Flu Activity Not available.
METAR KPKV 190855Z AUTO 15003KT 10SM CLR 25/24 A2983 RMK AO2 60001 T02490240

More Conditions Fewer Conditions

Pressure 29.83 in
Visibility 10.0 miles
Clouds Clear
Dew Point 75 °F
Humidity 95%
Rainfall 0.01 in
Snow Depth Not available.
UV 0 out of 12
Pollen 7.30 out of 12
Air Quality Not available.
Flu Activity Not available.
METAR KPKV 190855Z AUTO 15003KT 10SM CLR 25/24 A2983 RMK AO2 60001 T02490240

More Conditions Fewer Conditions

10-Day Weather Forecast

Almanac

Astronomy

Sep. 19, 2014 Rise Set
Actual Time 7:12 AM CDT 7:25 PM CDT
Civil Twilight 6:48 AM CDT 7:48 PM CDT
Nautical Twilight 6:20 AM CDT 8:16 PM CDT
Astronomical Twilight 5:52 AM CDT 8:44 PM CDT
Moon 3:13 AM CDT 4:41 PM CDT
Length of Visible Light 13h 00m
Length of Day
12h 13m
Tomorrow will be 1m 44s shorter.
Waning Crescent, 20% of the Moon is Illuminated
Today
Waning Crescent
Sep 24
New
Oct 1
First Quarter
Oct 8
Full
Oct 15
Last Quarter

Today's Extremes

State Highs State Lows

Community

WunderPhotos

Upload Photos

1,754,583 photos uploaded!

Nearby

Snow Depth

Station Depth Elevation
No new snow has been reported.

Earthquake Activity

City Distance Mag. Time & Date
No recent earthquake activity has been reported nearby.
Minimum magnitude displayed is 2.5.

Coastal Water Temperatures

Place Temperature
No Stations Reporting

Nearby Weather Stations